createdAt,value
2022-08-05T00:00:19.173Z,6.38
2022-08-05T00:02:50.565Z,3.97
2022-08-05T00:05:27.485Z,7.05
2022-08-05T00:08:32.729Z,5.05
2022-08-05T00:11:00.569Z,6.05
2022-08-05T00:13:39.538Z,6.93
2022-08-05T00:16:12.690Z,7.18
2022-08-05T00:18:42.346Z,10.30
2022-08-05T00:21:10.694Z,5.70
2022-08-05T00:23:45.700Z,8.80
2022-08-05T00:26:16.499Z,9.82
2022-08-05T00:28:46.027Z,10.07
2022-08-05T00:31:14.422Z,11.98
2022-08-05T00:34:56.278Z,14.20
2022-08-05T00:37:20.097Z,10.27
2022-08-05T00:39:18.013Z,10.07
2022-08-05T00:41:55.178Z,7.80
2022-08-05T00:44:30.663Z,9.30
2022-08-05T00:47:02.043Z,12.63
2022-08-05T00:49:51.301Z,7.77
2022-08-05T00:52:28.337Z,8.10
2022-08-05T00:54:57.057Z,8.37
2022-08-05T00:57:38.067Z,8.70
2022-08-05T01:00:16.912Z,8.97
2022-08-05T01:02:45.038Z,8.77
2022-08-05T01:05:12.875Z,6.67
2022-08-05T01:08:41.990Z,7.97
2022-08-05T01:10:36.756Z,6.07
2022-08-05T01:13:12.928Z,5.03
2022-08-05T01:15:54.183Z,5.07
2022-08-05T01:18:27.519Z,4.07
2022-08-05T01:21:08.936Z,6.40
2022-08-05T01:23:57.864Z,7.63
2022-08-05T01:26:56.675Z,5.87
2022-08-05T01:29:33.178Z,5.23
2022-08-05T01:32:12.387Z,5.20
2022-08-05T01:34:49.681Z,5.97
2022-08-05T01:37:25.136Z,4.37
2022-08-05T01:39:58.819Z,8.47
2022-08-05T01:42:28.792Z,5.07
2022-08-05T01:45:02.075Z,4.80
2022-08-05T01:47:39.783Z,4.80
2022-08-05T01:50:17.395Z,4.77
2022-08-05T01:52:49.917Z,10.50
2022-08-05T01:55:21.602Z,5.07
2022-08-05T01:58:29.496Z,12.40
2022-08-05T02:00:45.357Z,10.60
2022-08-05T02:03:28.954Z,9.67
2022-08-05T02:06:01.022Z,14.90
2022-08-05T02:08:32.199Z,5.13
2022-08-05T02:11:03.910Z,10.83
2022-08-05T02:13:53.242Z,10.23
2022-08-05T02:16:27.550Z,4.43
2022-08-05T02:18:59.650Z,10.47
2022-08-05T02:21:32.376Z,10.47
2022-08-05T02:24:18.068Z,11.43
2022-08-05T02:26:53.835Z,8.47
2022-08-05T02:29:58.143Z,14.03
2022-08-05T02:32:23.637Z,10.03
2022-08-05T02:34:54.696Z,10.40
2022-08-05T02:37:24.910Z,12.13
2022-08-05T02:39:53.874Z,10.87
2022-08-05T02:42:26.113Z,6.33
2022-08-05T02:44:57.999Z,7.77
2022-08-05T02:48:07.405Z,14.60
2022-08-05T02:50:18.071Z,12.23
2022-08-05T02:52:47.673Z,17.43
2022-08-05T02:55:17.574Z,11.40
2022-08-05T02:58:11.605Z,8.33
2022-08-05T03:00:45.998Z,12.73
2022-08-05T03:03:17.713Z,13.77
2022-08-05T03:06:54.658Z,13.53
2022-08-05T03:08:37.030Z,9.33
2022-08-05T03:11:55.351Z,12.27
2022-08-05T03:14:03.239Z,6.90
2022-08-05T03:16:32.266Z,8.60
2022-08-05T03:19:04.277Z,3.87
2022-08-05T03:21:48.958Z,7.53
2022-08-05T03:24:23.604Z,8.87
2022-08-05T03:26:58.501Z,8.53
2022-08-05T03:29:45.781Z,10.13
2022-08-05T03:32:15.230Z,6.70
2022-08-05T03:34:51.352Z,11.77
2022-08-05T03:37:20.738Z,7.43
2022-08-05T03:40:01.458Z,8.50
2022-08-05T03:42:32.970Z,8.27
2022-08-05T03:45:22.023Z,9.63
2022-08-05T03:47:51.243Z,10.10
2022-08-05T03:50:21.456Z,11.17
2022-08-05T03:55:51.092Z,13.53
2022-08-05T03:56:04.692Z,8.23
2022-08-05T03:58:37.945Z,7.97
2022-08-05T04:01:12.833Z,10.37
2022-08-05T04:04:09.086Z,12.53
2022-08-05T04:06:35.626Z,9.43
2022-08-05T04:09:06.297Z,11.90
2022-08-05T04:11:50.420Z,9.20
2022-08-05T04:14:30.192Z,11.63
2022-08-05T04:17:00.293Z,9.60
2022-08-05T04:19:29.233Z,8.10
2022-08-05T04:22:09.352Z,8.07
2022-08-05T04:24:43.986Z,13.63
2022-08-05T04:27:14.123Z,7.67
2022-08-05T04:29:43.569Z,13.43
2022-08-05T04:32:11.578Z,14.93
2022-08-05T04:34:42.981Z,9.97
2022-08-05T04:37:20.025Z,8.63
2022-08-05T04:39:52.971Z,10.57
2022-08-05T04:42:20.931Z,8.07
2022-08-05T04:44:53.342Z,10.87
2022-08-05T04:47:21.206Z,9.10
2022-08-05T04:50:01.727Z,10.23
2022-08-05T04:52:34.070Z,9.47
2022-08-05T04:55:15.006Z,9.47
2022-08-05T04:57:47.905Z,9.40
2022-08-05T05:00:23.327Z,11.97
2022-08-05T05:02:51.717Z,10.23
2022-08-05T05:05:28.715Z,9.83
2022-08-05T05:08:02.606Z,10.23
2022-08-05T05:10:33.411Z,8.73
2022-08-05T05:13:04.311Z,11.60
2022-08-05T05:15:56.914Z,12.03
2022-08-05T05:18:31.482Z,11.67
2022-08-05T05:21:03.269Z,12.23
2022-08-05T05:24:01.731Z,9.90
2022-08-05T05:26:28.444Z,10.77
2022-08-05T05:29:02.155Z,8.30
2022-08-05T05:34:02.342Z,8.40
2022-08-05T05:36:31.467Z,11.37
2022-08-05T05:39:03.597Z,10.37
2022-08-05T05:41:40.932Z,9.87
2022-08-05T05:44:35.848Z,11.03
2022-08-05T05:46:58.266Z,10.10
2022-08-05T05:49:26.318Z,10.17
2022-08-05T05:51:54.401Z,11.90
2022-08-05T05:54:50.473Z,10.27
2022-08-05T05:57:19.925Z,10.30
2022-08-05T05:59:48.807Z,10.87
2022-08-05T06:02:17.175Z,9.57
2022-08-05T06:05:01.252Z,11.87
2022-08-05T06:07:41.736Z,9.73
2022-08-05T06:10:12.699Z,11.73
2022-08-05T06:12:42.198Z,10.83
2022-08-05T06:15:23.794Z,10.47
2022-08-05T06:17:54.417Z,12.50
2022-08-05T06:20:23.000Z,12.00
2022-08-05T06:22:51.079Z,10.47
2022-08-05T06:25:24.327Z,10.90
2022-08-05T06:28:10.656Z,10.57
2022-08-05T06:30:41.329Z,9.93
2022-08-05T06:33:09.907Z,10.73
2022-08-05T06:36:04.022Z,11.43
2022-08-05T06:38:36.134Z,8.83
2022-08-05T06:41:09.198Z,13.87
2022-08-05T06:43:58.934Z,11.70
2022-08-05T06:46:30.255Z,12.77
2022-08-05T06:48:59.530Z,7.33
2022-08-05T06:51:30.217Z,11.93
2022-08-05T06:53:59.316Z,14.00
2022-08-05T06:56:29.063Z,12.37
2022-08-05T06:58:57.345Z,12.07
2022-08-05T07:01:27.641Z,13.90
2022-08-05T07:04:01.327Z,7.83
2022-08-05T07:06:30.411Z,17.93
2022-08-05T07:09:03.815Z,7.43
2022-08-05T07:11:37.351Z,9.47
2022-08-05T07:14:30.038Z,10.50
2022-08-05T07:18:00.930Z,8.20
2022-08-05T07:20:31.759Z,10.60
2022-08-05T07:22:38.507Z,7.80
2022-08-05T07:25:22.752Z,11.13
2022-08-05T07:28:04.252Z,10.70
2022-08-05T07:30:38.806Z,9.90
2022-08-05T07:33:10.675Z,8.77
2022-08-05T07:36:02.247Z,9.23
2022-08-05T07:38:34.170Z,10.50
2022-08-05T07:42:09.118Z,10.90
2022-08-05T07:43:56.542Z,15.20
2022-08-05T07:46:26.565Z,11.97
2022-08-05T07:49:01.910Z,12.03
2022-08-05T07:51:36.994Z,10.93
2022-08-05T07:54:09.970Z,12.37
2022-08-05T07:56:59.883Z,10.67
2022-08-05T07:59:38.082Z,9.80
2022-08-05T08:02:16.064Z,8.47
2022-08-05T08:04:46.899Z,7.53
2022-08-05T08:07:15.449Z,9.70
2022-08-05T08:09:44.211Z,9.50
2022-08-05T08:12:35.638Z,6.93
2022-08-05T08:15:03.681Z,7.23
2022-08-05T08:17:32.719Z,6.47
2022-08-05T08:20:43.862Z,6.47
2022-08-05T08:22:53.276Z,6.90
2022-08-05T08:25:26.831Z,5.63
2022-08-05T08:28:18.793Z,6.27
2022-08-05T08:31:01.733Z,5.23
2022-08-05T08:33:37.564Z,4.70
2022-08-05T08:36:38.474Z,5.22
2022-08-05T08:38:55.491Z,5.87
2022-08-05T08:41:26.136Z,5.13
2022-08-05T08:45:17.009Z,4.57
2022-08-05T08:47:47.216Z,3.77
2022-08-05T08:50:13.120Z,6.10
2022-08-05T08:52:51.349Z,4.05
2022-08-05T08:55:31.958Z,4.00
2022-08-05T08:58:09.483Z,4.03
2022-08-05T09:00:37.850Z,3.50
2022-08-05T09:03:08.189Z,4.05
2022-08-05T09:05:38.572Z,5.93
2022-08-05T09:08:27.240Z,3.95
2022-08-05T09:10:58.292Z,5.95
2022-08-05T09:13:31.905Z,5.35
2022-08-05T09:16:17.043Z,3.45
2022-08-05T09:18:46.666Z,4.95
2022-08-05T09:21:20.872Z,5.85
2022-08-05T09:24:08.656Z,5.18
2022-08-05T09:26:38.275Z,4.25
2022-08-05T09:29:11.542Z,7.60
2022-08-05T09:32:40.886Z,3.13
2022-08-05T09:34:54.905Z,6.30
2022-08-05T09:38:12.892Z,4.60
2022-08-05T09:40:30.638Z,4.47
2022-08-05T09:43:01.084Z,4.72
2022-08-05T09:46:07.421Z,4.50
2022-08-05T09:48:29.470Z,3.70
2022-08-05T09:51:01.485Z,5.53
2022-08-05T09:53:53.542Z,5.40
2022-08-05T09:56:27.180Z,5.57
2022-08-05T09:58:59.530Z,4.85
2022-08-05T10:01:32.382Z,5.43
2022-08-05T10:04:04.491Z,4.25
2022-08-05T10:06:41.564Z,4.90
2022-08-05T10:09:27.303Z,3.70
2022-08-05T10:11:56.362Z,3.53
2022-08-05T10:14:30.248Z,3.78
2022-08-05T10:17:37.239Z,4.88
2022-08-05T10:20:10.104Z,4.00
2022-08-05T10:22:42.793Z,4.38
2022-08-05T10:25:16.823Z,3.20
2022-08-05T10:28:12.909Z,3.67
2022-08-05T10:31:20.620Z,3.10
2022-08-05T10:33:20.915Z,2.65
2022-08-05T10:35:59.269Z,4.97
2022-08-05T10:38:33.252Z,4.75
2022-08-05T10:41:09.629Z,4.63
2022-08-05T10:43:59.285Z,4.45
2022-08-05T10:46:44.430Z,5.55
2022-08-05T10:49:16.601Z,5.82
2022-08-05T10:51:58.304Z,3.50
2022-08-05T10:55:02.808Z,6.05
2022-08-05T10:57:33.672Z,4.10
2022-08-05T11:00:19.022Z,2.67
2022-08-05T11:03:23.285Z,4.55
2022-08-05T11:06:15.430Z,4.00
2022-08-05T11:09:16.765Z,3.30
2022-08-05T11:11:53.361Z,4.60
2022-08-05T11:14:49.326Z,4.13
2022-08-05T11:17:57.369Z,3.33
2022-08-05T11:20:41.667Z,3.10
2022-08-05T11:23:33.387Z,3.45
2022-08-05T11:26:28.563Z,6.70
2022-08-05T11:29:06.752Z,2.88
2022-08-05T11:31:56.609Z,3.90
2022-08-05T11:34:38.678Z,4.60
2022-08-05T11:38:28.890Z,2.80
2022-08-05T11:39:55.236Z,2.97
2022-08-05T11:42:29.540Z,3.65
2022-08-05T11:45:05.381Z,3.58
2022-08-05T11:47:48.746Z,3.47
2022-08-05T11:50:18.027Z,3.83
2022-08-05T11:52:49.522Z,4.05
2022-08-05T11:55:19.114Z,3.90
2022-08-05T11:58:09.999Z,4.05
2022-08-05T12:00:38.437Z,3.05
2022-08-05T12:03:29.630Z,4.35
2022-08-05T12:06:10.120Z,3.40
2022-08-05T12:08:49.822Z,4.32
2022-08-05T12:11:21.429Z,3.08
2022-08-05T12:13:59.395Z,4.25
2022-08-05T12:16:32.806Z,3.15
2022-08-05T12:19:08.318Z,3.65
2022-08-05T12:21:43.417Z,5.85
2022-08-05T12:24:17.151Z,4.70
2022-08-05T12:26:47.719Z,3.30
2022-08-05T12:29:17.990Z,4.45
2022-08-05T12:31:54.522Z,3.70
2022-08-05T12:34:28.098Z,5.43
2022-08-05T12:36:57.194Z,5.30
2022-08-05T12:39:28.320Z,5.15
2022-08-05T12:42:10.252Z,3.55
2022-08-05T12:44:44.384Z,4.75
2022-08-05T12:47:17.092Z,3.60
2022-08-05T12:50:03.202Z,5.28
2022-08-05T12:52:41.859Z,5.50
2022-08-05T12:55:23.857Z,4.50
2022-08-05T12:58:49.557Z,5.38
2022-08-05T13:02:00.690Z,4.72
2022-08-05T13:03:42.169Z,6.55
2022-08-05T13:06:20.233Z,6.38
2022-08-05T13:08:51.777Z,5.25
2022-08-05T13:11:35.062Z,5.85
2022-08-05T13:14:25.122Z,5.57
2022-08-05T13:17:09.139Z,5.95
2022-08-05T13:19:52.031Z,6.05
2022-08-05T13:22:27.813Z,7.97
2022-08-05T13:25:05.815Z,4.05
2022-08-05T13:27:39.345Z,4.00
2022-08-05T13:30:33.775Z,5.35
2022-08-05T13:33:01.295Z,4.28
2022-08-05T13:35:46.912Z,4.68
2022-08-05T13:38:31.153Z,6.07
2022-08-05T13:41:04.653Z,3.83
2022-08-05T13:43:43.476Z,4.57
2022-08-05T13:46:14.738Z,4.28
2022-08-05T13:48:58.389Z,3.80
2022-08-05T13:51:36.666Z,4.85
2022-08-05T13:54:12.676Z,4.38
2022-08-05T13:56:45.548Z,6.47
2022-08-05T13:59:21.434Z,4.25
2022-08-05T14:01:57.528Z,6.38
2022-08-05T14:04:49.954Z,5.45
2022-08-05T14:07:56.414Z,8.40
2022-08-05T14:10:12.510Z,6.57
2022-08-05T14:12:43.049Z,7.03
2022-08-05T14:16:05.017Z,7.53
2022-08-05T14:18:06.104Z,7.70
2022-08-05T14:20:43.294Z,7.10
2022-08-05T14:23:23.347Z,8.03
2022-08-05T14:25:54.123Z,7.03
2022-08-05T14:28:26.129Z,6.90
2022-08-05T14:30:54.480Z,8.67
2022-08-05T14:33:24.082Z,7.18
2022-08-05T14:35:54.036Z,8.23
2022-08-05T14:38:31.591Z,9.17
2022-08-05T14:41:01.730Z,9.33
2022-08-05T14:43:53.804Z,7.80
2022-08-05T14:46:22.772Z,9.07
2022-08-05T14:48:56.654Z,8.77
2022-08-05T14:51:30.814Z,8.97
2022-08-05T14:54:26.703Z,9.27
2022-08-05T14:56:49.029Z,11.17
2022-08-05T14:59:21.200Z,9.97
2022-08-05T15:01:49.892Z,9.63
2022-08-05T15:04:20.658Z,9.93
2022-08-05T15:06:50.409Z,9.63
2022-08-05T15:09:51.550Z,10.37
2022-08-05T15:12:11.836Z,11.27
2022-08-05T15:14:49.953Z,11.50
2022-08-05T15:17:47.097Z,11.13
2022-08-05T15:20:13.401Z,11.23
2022-08-05T15:22:54.081Z,11.40
2022-08-05T15:25:50.821Z,10.43
2022-08-05T15:28:16.300Z,10.93
2022-08-05T15:30:45.825Z,11.23
2022-08-05T15:33:22.047Z,10.00
2022-08-05T15:36:16.990Z,10.17
2022-08-05T15:40:39.683Z,9.57
2022-08-05T15:41:55.698Z,9.67
2022-08-05T15:44:28.095Z,10.03
2022-08-05T15:47:01.174Z,8.80
2022-08-05T15:49:53.555Z,7.63
2022-08-05T15:52:51.751Z,7.07
2022-08-05T15:55:08.439Z,6.23
2022-08-05T15:57:39.836Z,5.60
2022-08-05T16:00:10.630Z,5.13
2022-08-05T16:02:39.582Z,5.73
2022-08-05T16:05:13.610Z,3.63
2022-08-05T16:07:46.649Z,7.17
2022-08-05T16:10:25.404Z,4.00
2022-08-05T16:12:58.481Z,5.33
2022-08-05T16:15:32.436Z,6.20
2022-08-05T16:18:04.089Z,4.50
2022-08-05T16:20:36.958Z,4.00
2022-08-05T16:23:05.143Z,4.27
2022-08-05T16:25:36.702Z,4.63
2022-08-05T16:28:09.732Z,3.83
2022-08-05T16:30:38.821Z,4.57
2022-08-05T16:33:06.875Z,3.97
2022-08-05T16:35:42.006Z,3.13
2022-08-05T16:38:24.095Z,3.67
2022-08-05T16:40:55.174Z,4.50
2022-08-05T16:43:31.125Z,2.10
2022-08-05T16:46:05.930Z,3.60
2022-08-05T16:48:41.284Z,1.47
2022-08-05T16:51:11.006Z,1.60
2022-08-05T16:54:05.897Z,2.53
2022-08-05T16:56:34.083Z,2.63
2022-08-05T16:59:08.436Z,4.50
2022-08-05T17:01:52.921Z,1.67
2022-08-05T17:04:23.893Z,2.63
2022-08-05T17:06:55.550Z,1.73
2022-08-05T17:09:24.690Z,3.10
2022-08-05T17:11:59.830Z,1.77
2022-08-05T17:14:37.768Z,4.73
2022-08-05T17:17:14.979Z,2.30
2022-08-05T17:19:46.042Z,3.23
2022-08-05T17:22:24.781Z,1.83
2022-08-05T17:24:57.494Z,2.60
2022-08-05T17:27:33.644Z,2.03
2022-08-05T17:30:12.112Z,1.53
2022-08-05T17:32:46.968Z,3.20
2022-08-05T17:35:20.678Z,1.23
2022-08-05T17:37:49.135Z,3.10
2022-08-05T17:40:22.255Z,3.70
2022-08-05T17:42:53.014Z,0.83
2022-08-05T17:45:24.882Z,3.03
2022-08-05T17:47:58.917Z,3.53
2022-08-05T17:50:30.386Z,2.63
2022-08-05T17:53:05.608Z,1.37
2022-08-05T17:55:39.524Z,2.87
2022-08-05T17:58:11.052Z,2.17
2022-08-05T18:00:45.252Z,1.93
2022-08-05T18:06:12.171Z,3.27
2022-08-05T18:08:44.259Z,1.07
2022-08-05T18:11:23.685Z,2.73
2022-08-05T18:13:52.903Z,1.67
2022-08-05T18:16:22.516Z,2.83
2022-08-05T18:18:50.338Z,2.17
2022-08-05T18:21:21.172Z,2.43
2022-08-05T18:23:53.717Z,3.27
2022-08-05T18:26:27.801Z,2.57
2022-08-05T18:28:58.267Z,2.70
2022-08-05T18:31:33.174Z,2.57
2022-08-05T18:34:05.975Z,3.90
2022-08-05T18:36:35.959Z,2.17
2022-08-05T18:39:04.430Z,2.23
2022-08-05T18:41:57.092Z,3.37
2022-08-05T18:44:34.810Z,1.97
2022-08-05T18:47:04.966Z,1.70
2022-08-05T18:49:58.078Z,2.07
2022-08-05T18:52:35.692Z,2.93
2022-08-05T18:55:10.555Z,2.03
2022-08-05T18:57:50.019Z,4.90
2022-08-05T19:00:28.762Z,3.07
2022-08-05T19:03:03.366Z,2.07
2022-08-05T19:06:12.136Z,2.23
2022-08-05T19:08:30.498Z,7.63
2022-08-05T19:11:02.833Z,3.57
2022-08-05T19:13:36.062Z,3.53
2022-08-05T19:16:25.030Z,2.60
2022-08-05T19:18:56.797Z,1.67
2022-08-05T19:21:27.619Z,2.63
2022-08-05T19:24:08.170Z,2.57
2022-08-05T19:26:54.290Z,4.20
2022-08-05T19:29:23.733Z,2.20
2022-08-05T19:31:54.943Z,3.33
2022-08-05T19:34:27.682Z,2.47
2022-08-05T19:36:58.233Z,3.20
2022-08-05T19:39:28.315Z,2.50
2022-08-05T19:42:07.708Z,2.47
2022-08-05T19:44:44.980Z,3.70
2022-08-05T19:47:15.322Z,2.40
2022-08-05T19:49:48.016Z,2.03
2022-08-05T19:52:31.775Z,3.17
2022-08-05T19:56:11.587Z,5.00
2022-08-05T19:58:14.193Z,5.67
2022-08-05T20:00:40.547Z,4.40
2022-08-05T20:03:09.351Z,5.87
2022-08-05T20:05:42.950Z,2.57
2022-08-05T20:08:17.788Z,2.93
2022-08-05T20:10:45.642Z,3.27
2022-08-05T20:13:18.128Z,2.83
2022-08-05T20:15:58.294Z,3.10
2022-08-05T20:18:35.795Z,3.07
2022-08-05T20:21:07.106Z,2.97
2022-08-05T20:23:40.146Z,2.67
2022-08-05T20:26:18.653Z,2.47
2022-08-05T20:28:48.559Z,3.10
2022-08-05T20:31:17.466Z,5.63
2022-08-05T20:33:50.246Z,6.50
2022-08-05T20:36:20.614Z,3.97
2022-08-05T20:38:53.357Z,4.30
2022-08-05T20:41:26.878Z,4.60
2022-08-05T20:44:19.175Z,5.17
2022-08-05T20:46:59.454Z,5.83
2022-08-05T20:49:28.176Z,5.43
2022-08-05T20:51:58.655Z,5.50
2022-08-05T20:54:43.214Z,6.40
2022-08-05T20:57:24.815Z,8.50
2022-08-05T21:00:20.787Z,9.03
2022-08-05T21:02:58.048Z,6.37
2022-08-05T21:05:28.560Z,9.83
2022-08-05T21:08:15.611Z,4.13
2022-08-05T21:10:48.708Z,8.53
2022-08-05T21:13:41.293Z,1.73
2022-08-05T21:16:05.814Z,4.93
2022-08-05T21:18:33.754Z,2.50
2022-08-05T21:21:02.383Z,1.63
2022-08-05T21:23:37.031Z,2.83
2022-08-05T21:26:12.428Z,2.77
2022-08-05T21:28:47.990Z,3.03
2022-08-05T21:31:19.326Z,8.13
2022-08-05T21:33:49.452Z,4.87
2022-08-05T21:36:19.152Z,2.27
2022-08-05T21:38:57.279Z,3.83
2022-08-05T21:41:33.091Z,5.13
2022-08-05T21:44:04.101Z,3.37
2022-08-05T21:46:34.323Z,2.30
2022-08-05T21:49:04.711Z,3.37
2022-08-05T21:52:21.487Z,6.83
2022-08-05T21:54:28.167Z,4.07
2022-08-05T21:57:28.467Z,3.77
2022-08-05T22:00:05.264Z,3.63
2022-08-05T22:02:34.878Z,2.33
2022-08-05T22:05:04.597Z,5.33
2022-08-05T22:07:40.352Z,4.33
2022-08-05T22:10:25.488Z,3.10
2022-08-05T22:12:57.518Z,5.20
2022-08-05T22:16:04.680Z,3.67
2022-08-05T22:18:14.721Z,4.70
2022-08-05T22:20:44.240Z,4.13
2022-08-05T22:24:01.179Z,4.50
2022-08-05T22:26:38.315Z,2.17
2022-08-05T22:29:06.657Z,5.50
2022-08-05T22:31:44.492Z,2.37
2022-08-05T22:34:25.439Z,3.07
2022-08-05T22:36:56.520Z,7.50
2022-08-05T22:39:32.578Z,2.97
2022-08-05T22:42:11.096Z,3.40
2022-08-05T22:44:42.544Z,5.90
2022-08-05T22:47:29.897Z,2.40
2022-08-05T22:52:45.914Z,2.47
2022-08-05T22:55:18.916Z,5.50
2022-08-05T22:57:51.332Z,5.23
2022-08-05T23:00:21.661Z,4.23
2022-08-05T23:02:50.438Z,5.87
2022-08-05T23:05:19.135Z,2.40
2022-08-05T23:07:50.782Z,3.83
2022-08-05T23:10:20.292Z,3.10
2022-08-05T23:12:51.268Z,2.70
2022-08-05T23:15:22.344Z,2.40
2022-08-05T23:18:00.609Z,4.17
2022-08-05T23:20:31.067Z,4.43
2022-08-05T23:22:59.059Z,2.87
2022-08-05T23:25:51.447Z,3.43
2022-08-05T23:28:17.296Z,2.33
2022-08-05T23:30:53.799Z,5.17
2022-08-05T23:34:03.345Z,1.57
2022-08-05T23:36:13.662Z,2.47
2022-08-05T23:38:42.667Z,2.23
2022-08-05T23:41:11.425Z,6.23
2022-08-05T23:44:04.671Z,1.83
2022-08-05T23:46:28.868Z,1.90
2022-08-05T23:48:59.794Z,1.43
2022-08-05T23:51:53.981Z,1.73
2022-08-05T23:54:25.240Z,2.17
2022-08-05T23:57:03.994Z,2.77
